sensor_id;sensor_type;location;lat;lon;timestamp;pressure;altitude;pressure_sealevel;temperature;humidity
19526;BME280;9907;42.676;26.348;2023-05-24T00:01:42;98621.63;;;13.69;100.00
19526;BME280;9907;42.676;26.348;2023-05-24T00:04:07;98615.59;;;13.58;100.00
19526;BME280;9907;42.676;26.348;2023-05-24T00:06:35;98619.78;;;13.61;100.00
19526;BME280;9907;42.676;26.348;2023-05-24T00:09:02;98615.28;;;13.78;100.00
19526;BME280;9907;42.676;26.348;2023-05-24T00:11:27;98615.59;;;13.83;100.00
19526;BME280;9907;42.676;26.348;2023-05-24T00:13:53;98613.59;;;13.85;100.00
19526;BME280;9907;42.676;26.348;2023-05-24T00:16:18;98613.59;;;13.77;100.00
19526;BME280;9907;42.676;26.348;2023-05-24T00:18:43;98607.53;;;13.75;100.00
19526;BME280;9907;42.676;26.348;2023-05-24T00:21:13;98604.34;;;13.71;100.00
19526;BME280;9907;42.676;26.348;2023-05-24T00:23:39;98612.59;;;13.78;100.00
19526;BME280;9907;42.676;26.348;2023-05-24T00:26:07;98598.66;;;13.90;100.00
19526;BME280;9907;42.676;26.348;2023-05-24T00:28:33;98601.00;;;13.77;100.00
19526;BME280;9907;42.676;26.348;2023-05-24T00:30:58;98604.34;;;13.79;100.00
19526;BME280;9907;42.676;26.348;2023-05-24T00:33:24;98606.88;;;13.64;100.00
19526;BME280;9907;42.676;26.348;2023-05-24T00:35:50;98610.03;;;13.60;100.00
19526;BME280;9907;42.676;26.348;2023-05-24T00:38:27;98617.59;;;13.56;100.00
19526;BME280;9907;42.676;26.348;2023-05-24T00:40:55;98607.88;;;13.55;100.00
19526;BME280;9907;42.676;26.348;2023-05-24T00:43:22;98604.34;;;13.55;100.00
19526;BME280;9907;42.676;26.348;2023-05-24T00:48:35;98614.91;;;13.56;100.00
19526;BME280;9907;42.676;26.348;2023-05-24T00:51:01;98604.19;;;13.64;100.00
19526;BME280;9907;42.676;26.348;2023-05-24T00:53:26;98601.19;;;13.59;100.00
19526;BME280;9907;42.676;26.348;2023-05-24T00:55:52;98609.56;;;13.64;100.00
19526;BME280;9907;42.676;26.348;2023-05-24T00:58:19;98605.38;;;13.62;100.00
19526;BME280;9907;42.676;26.348;2023-05-24T01:00:46;98607.88;;;13.63;100.00
19526;BME280;9907;42.676;26.348;2023-05-24T01:03:14;98601.84;;;13.61;100.00
19526;BME280;9907;42.676;26.348;2023-05-24T01:05:39;98605.69;;;13.43;100.00
19526;BME280;9907;42.676;26.348;2023-05-24T01:10:50;98591.41;;;13.42;100.00
19526;BME280;9907;42.676;26.348;2023-05-24T01:13:33;98599.16;;;13.53;100.00
19526;BME280;9907;42.676;26.348;2023-05-24T01:18:43;98594.44;;;13.63;100.00
19526;BME280;9907;42.676;26.348;2023-05-24T01:29:31;98588.09;;;13.40;100.00
19526;BME280;9907;42.676;26.348;2023-05-24T01:31:57;98578.03;;;13.50;100.00
19526;BME280;9907;42.676;26.348;2023-05-24T01:34:27;98580.34;;;13.45;100.00
19526;BME280;9907;42.676;26.348;2023-05-24T01:36:52;98591.75;;;13.39;100.00
19526;BME280;9907;42.676;26.348;2023-05-24T01:39:19;98587.59;;;13.45;100.00
19526;BME280;9907;42.676;26.348;2023-05-24T01:42:06;98589.09;;;13.47;100.00
19526;BME280;9907;42.676;26.348;2023-05-24T01:44:47;98594.44;;;13.39;100.00
19526;BME280;9907;42.676;26.348;2023-05-24T01:49:58;98600.31;;;13.43;100.00
19526;BME280;9907;42.676;26.348;2023-05-24T01:52:27;98597.63;;;13.43;100.00
19526;BME280;9907;42.676;26.348;2023-05-24T01:54:56;98605.19;;;13.47;100.00
19526;BME280;9907;42.676;26.348;2023-05-24T01:57:22;98596.25;;;13.31;100.00
19526;BME280;9907;42.676;26.348;2023-05-24T01:59:49;98607.19;;;13.29;100.00
19526;BME280;9907;42.676;26.348;2023-05-24T02:02:15;98615.84;;;13.23;100.00
19526;BME280;9907;42.676;26.348;2023-05-24T02:04:42;98606.19;;;13.30;100.00
19526;BME280;9907;42.676;26.348;2023-05-24T02:07:07;98606.50;;;13.35;100.00
19526;BME280;9907;42.676;26.348;2023-05-24T02:09:33;98610.19;;;13.42;100.00
19526;BME280;9907;42.676;26.348;2023-05-24T02:11:58;98616.25;;;13.36;100.00
19526;BME280;9907;42.676;26.348;2023-05-24T02:14:24;98619.91;;;13.35;100.00
19526;BME280;9907;42.676;26.348;2023-05-24T02:16:51;98618.41;;;13.33;100.00
19526;BME280;9907;42.676;26.348;2023-05-24T02:19:16;98624.44;;;13.35;100.00
19526;BME280;9907;42.676;26.348;2023-05-24T02:21:42;98613.72;;;13.35;100.00
19526;BME280;9907;42.676;26.348;2023-05-24T02:24:07;98618.75;;;13.30;100.00
19526;BME280;9907;42.676;26.348;2023-05-24T02:26:36;98614.22;;;13.38;100.00
19526;BME280;9907;42.676;26.348;2023-05-24T02:29:02;98622.94;;;13.32;100.00
19526;BME280;9907;42.676;26.348;2023-05-24T02:31:27;98623.56;;;13.18;100.00
19526;BME280;9907;42.676;26.348;2023-05-24T02:33:57;98619.91;;;13.35;100.00
19526;BME280;9907;42.676;26.348;2023-05-24T02:36:23;98620.91;;;13.26;100.00
19526;BME280;9907;42.676;26.348;2023-05-24T02:38:51;98623.41;;;13.28;100.00
19526;BME280;9907;42.676;26.348;2023-05-24T02:41:17;98633.00;;;13.30;100.00
19526;BME280;9907;42.676;26.348;2023-05-24T02:43:46;98632.31;;;13.28;100.00
19526;BME280;9907;42.676;26.348;2023-05-24T02:46:13;98632.66;;;13.33;100.00
19526;BME280;9907;42.676;26.348;2023-05-24T02:48:39;98635.50;;;13.32;100.00
19526;BME280;9907;42.676;26.348;2023-05-24T02:51:04;98625.94;;;13.21;100.00
19526;BME280;9907;42.676;26.348;2023-05-24T02:53:30;98634.66;;;13.31;100.00
19526;BME280;9907;42.676;26.348;2023-05-24T02:55:57;98631.84;;;13.41;100.00
19526;BME280;9907;42.676;26.348;2023-05-24T02:58:22;98636.84;;;13.36;100.00
19526;BME280;9907;42.676;26.348;2023-05-24T03:00:48;98627.94;;;13.27;100.00
19526;BME280;9907;42.676;26.348;2023-05-24T03:03:14;98633.34;;;13.35;100.00
19526;BME280;9907;42.676;26.348;2023-05-24T03:05:39;98638.53;;;13.37;100.00
19526;BME280;9907;42.676;26.348;2023-05-24T03:08:05;98634.66;;;13.31;100.00
19526;BME280;9907;42.676;26.348;2023-05-24T03:10:31;98636.00;;;13.35;100.00
19526;BME280;9907;42.676;26.348;2023-05-24T03:12:56;98631.31;;;13.45;100.00
19526;BME280;9907;42.676;26.348;2023-05-24T03:15:22;98636.06;;;13.51;100.00
19526;BME280;9907;42.676;26.348;2023-05-24T03:17:47;98630.00;;;13.49;100.00
19526;BME280;9907;42.676;26.348;2023-05-24T03:20:13;98628.34;;;13.48;100.00
19526;BME280;9907;42.676;26.348;2023-05-24T03:22:40;98622.44;;;13.53;100.00
19526;BME280;9907;42.676;26.348;2023-05-24T03:25:06;98633.69;;;13.56;100.00
19526;BME280;9907;42.676;26.348;2023-05-24T03:27:33;98632.03;;;13.47;100.00
19526;BME280;9907;42.676;26.348;2023-05-24T03:29:58;98624.97;;;13.54;100.00
19526;BME280;9907;42.676;26.348;2023-05-24T03:32:24;98629.53;;;13.62;100.00
19526;BME280;9907;42.676;26.348;2023-05-24T03:34:49;98630.00;;;13.57;100.00
19526;BME280;9907;42.676;26.348;2023-05-24T03:37:15;98634.19;;;13.60;100.00
19526;BME280;9907;42.676;26.348;2023-05-24T03:39:40;98626.34;;;13.67;100.00
19526;BME280;9907;42.676;26.348;2023-05-24T03:42:06;98635.75;;;13.71;100.00
19526;BME280;9907;42.676;26.348;2023-05-24T03:44:31;98630.69;;;13.68;100.00
19526;BME280;9907;42.676;26.348;2023-05-24T03:46:57;98634.91;;;13.70;100.00
19526;BME280;9907;42.676;26.348;2023-05-24T03:49:22;98637.41;;;13.72;100.00
19526;BME280;9907;42.676;26.348;2023-05-24T03:51:48;98642.63;;;13.73;100.00
19526;BME280;9907;42.676;26.348;2023-05-24T03:54:13;98641.44;;;13.76;100.00
19526;BME280;9907;42.676;26.348;2023-05-24T03:56:38;98640.44;;;13.85;100.00
19526;BME280;9907;42.676;26.348;2023-05-24T03:59:04;98635.22;;;13.83;100.00
19526;BME280;9907;42.676;26.348;2023-05-24T04:01:30;98641.94;;;13.87;100.00
19526;BME280;9907;42.676;26.348;2023-05-24T04:03:56;98647.97;;;13.97;100.00
19526;BME280;9907;42.676;26.348;2023-05-24T04:06:22;98644.09;;;14.08;100.00
19526;BME280;9907;42.676;26.348;2023-05-24T04:08:56;98654.69;;;14.01;100.00
19526;BME280;9907;42.676;26.348;2023-05-24T04:11:22;98658.72;;;13.97;100.00
19526;BME280;9907;42.676;26.348;2023-05-24T04:13:48;98659.41;;;14.07;100.00
19526;BME280;9907;42.676;26.348;2023-05-24T04:16:17;98655.88;;;14.15;100.00
19526;BME280;9907;42.676;26.348;2023-05-24T04:18:43;98656.84;;;14.30;100.00
19526;BME280;9907;42.676;26.348;2023-05-24T04:21:10;98661.22;;;14.47;100.00
19526;BME280;9907;42.676;26.348;2023-05-24T04:23:38;98654.63;;;14.66;100.00
19526;BME280;9907;42.676;26.348;2023-05-24T04:26:03;98650.34;;;14.96;100.00
19526;BME280;9907;42.676;26.348;2023-05-24T04:28:29;98658.09;;;15.30;100.00
19526;BME280;9907;42.676;26.348;2023-05-24T04:30:55;98661.50;;;15.54;100.00
19526;BME280;9907;42.676;26.348;2023-05-24T04:33:21;98655.97;;;15.71;100.00
19526;BME280;9907;42.676;26.348;2023-05-24T04:35:47;98654.75;;;15.81;100.00
19526;BME280;9907;42.676;26.348;2023-05-24T04:38:13;98658.22;;;15.90;100.00
19526;BME280;9907;42.676;26.348;2023-05-24T04:40:38;98656.94;;;16.00;100.00
19526;BME280;9907;42.676;26.348;2023-05-24T04:43:04;98660.34;;;16.17;100.00
19526;BME280;9907;42.676;26.348;2023-05-24T04:45:31;98659.09;;;16.42;100.00
19526;BME280;9907;42.676;26.348;2023-05-24T04:47:58;98658.91;;;16.81;100.00
19526;BME280;9907;42.676;26.348;2023-05-24T04:50:23;98659.44;;;16.77;100.00
19526;BME280;9907;42.676;26.348;2023-05-24T04:52:50;98656.72;;;17.21;100.00
19526;BME280;9907;42.676;26.348;2023-05-24T04:55:15;98658.63;;;17.41;100.00
19526;BME280;9907;42.676;26.348;2023-05-24T04:57:41;98660.06;;;17.23;100.00
19526;BME280;9907;42.676;26.348;2023-05-24T05:00:07;98669.00;;;17.23;100.00
19526;BME280;9907;42.676;26.348;2023-05-24T05:02:32;98657.88;;;17.62;100.00
19526;BME280;9907;42.676;26.348;2023-05-24T05:04:58;98662.72;;;17.88;100.00
19526;BME280;9907;42.676;26.348;2023-05-24T05:07:24;98661.88;;;17.87;100.00
19526;BME280;9907;42.676;26.348;2023-05-24T05:09:49;98660.63;;;17.90;100.00
19526;BME280;9907;42.676;26.348;2023-05-24T05:12:15;98659.59;;;18.12;100.00
19526;BME280;9907;42.676;26.348;2023-05-24T05:14:41;98657.81;;;18.47;100.00
19526;BME280;9907;42.676;26.348;2023-05-24T05:17:06;98650.00;;;18.86;100.00
19526;BME280;9907;42.676;26.348;2023-05-24T05:19:32;98662.38;;;19.02;100.00
19526;BME280;9907;42.676;26.348;2023-05-24T05:21:57;98658.16;;;19.00;100.00
19526;BME280;9907;42.676;26.348;2023-05-24T05:24:23;98655.03;;;18.96;100.00
19526;BME280;9907;42.676;26.348;2023-05-24T05:26:48;98657.16;;;19.07;100.00
19526;BME280;9907;42.676;26.348;2023-05-24T05:29:14;98663.13;;;19.37;100.00
19526;BME280;9907;42.676;26.348;2023-05-24T05:31:39;98656.81;;;19.17;100.00
19526;BME280;9907;42.676;26.348;2023-05-24T05:34:05;98663.66;;;19.06;100.00
19526;BME280;9907;42.676;26.348;2023-05-24T05:36:34;98665.03;;;18.95;100.00
19526;BME280;9907;42.676;26.348;2023-05-24T05:39:07;98663.53;;;19.27;100.00
19526;BME280;9907;42.676;26.348;2023-05-24T05:41:38;98662.44;;;19.63;100.00
19526;BME280;9907;42.676;26.348;2023-05-24T05:44:04;98667.00;;;19.56;100.00
19526;BME280;9907;42.676;26.348;2023-05-24T05:46:29;98665.22;;;19.89;100.00
19526;BME280;9907;42.676;26.348;2023-05-24T05:48:55;98659.59;;;20.10;100.00
19526;BME280;9907;42.676;26.348;2023-05-24T05:51:20;98657.13;;;20.15;100.00
19526;BME280;9907;42.676;26.348;2023-05-24T05:53:46;98665.91;;;20.37;98.84
19526;BME280;9907;42.676;26.348;2023-05-24T05:56:11;98664.19;;;20.03;97.27
19526;BME280;9907;42.676;26.348;2023-05-24T05:58:37;98657.16;;;20.48;98.52
19526;BME280;9907;42.676;26.348;2023-05-24T06:01:03;98669.47;;;20.51;93.54
19526;BME280;9907;42.676;26.348;2023-05-24T06:03:29;98670.91;;;20.73;91.06
19526;BME280;9907;42.676;26.348;2023-05-24T06:05:54;98671.31;;;20.70;89.89
19526;BME280;9907;42.676;26.348;2023-05-24T06:08:20;98667.91;;;21.07;87.70
19526;BME280;9907;42.676;26.348;2023-05-24T06:10:45;98663.31;;;21.14;85.73
19526;BME280;9907;42.676;26.348;2023-05-24T06:13:12;98670.81;;;21.32;85.01
19526;BME280;9907;42.676;26.348;2023-05-24T06:15:37;98670.13;;;21.36;82.02
19526;BME280;9907;42.676;26.348;2023-05-24T06:18:03;98673.69;;;21.37;89.16
19526;BME280;9907;42.676;26.348;2023-05-24T06:20:29;98675.09;;;21.53;84.22
19526;BME280;9907;42.676;26.348;2023-05-24T06:22:55;98673.94;;;21.73;82.71
19526;BME280;9907;42.676;26.348;2023-05-24T06:25:21;98678.38;;;22.06;78.15
19526;BME280;9907;42.676;26.348;2023-05-24T06:27:49;98674.72;;;22.18;76.37
19526;BME280;9907;42.676;26.348;2023-05-24T06:30:15;98675.34;;;22.20;75.05
19526;BME280;9907;42.676;26.348;2023-05-24T06:32:41;98677.97;;;22.33;72.29
19526;BME280;9907;42.676;26.348;2023-05-24T06:35:07;98681.84;;;22.44;71.73
19526;BME280;9907;42.676;26.348;2023-05-24T06:37:33;98684.88;;;22.61;73.36
19526;BME280;9907;42.676;26.348;2023-05-24T06:39:58;98689.22;;;22.62;72.07
19526;BME280;9907;42.676;26.348;2023-05-24T06:42:23;98692.41;;;22.59;73.15
19526;BME280;9907;42.676;26.348;2023-05-24T06:44:49;98683.75;;;22.93;72.79
19526;BME280;9907;42.676;26.348;2023-05-24T06:47:14;98677.38;;;22.99;71.40
19526;BME280;9907;42.676;26.348;2023-05-24T06:49:40;98681.19;;;22.98;69.99
19526;BME280;9907;42.676;26.348;2023-05-24T06:52:06;98682.38;;;23.02;69.83
19526;BME280;9907;42.676;26.348;2023-05-24T06:54:32;98686.66;;;23.16;68.77
19526;BME280;9907;42.676;26.348;2023-05-24T06:56:58;98682.41;;;23.39;66.96
19526;BME280;9907;42.676;26.348;2023-05-24T06:59:23;98680.00;;;23.31;66.70
19526;BME280;9907;42.676;26.348;2023-05-24T07:01:49;98684.25;;;23.45;67.90
19526;BME280;9907;42.676;26.348;2023-05-24T07:04:18;98679.09;;;23.55;64.16
19526;BME280;9907;42.676;26.348;2023-05-24T07:06:43;98692.66;;;23.91;63.06
19526;BME280;9907;42.676;26.348;2023-05-24T07:09:10;98681.88;;;23.96;63.38
19526;BME280;9907;42.676;26.348;2023-05-24T07:11:35;98674.38;;;23.62;62.95
19526;BME280;9907;42.676;26.348;2023-05-24T07:14:01;98678.56;;;23.64;62.22
19526;BME280;9907;42.676;26.348;2023-05-24T07:16:26;98685.13;;;23.75;60.16
19526;BME280;9907;42.676;26.348;2023-05-24T07:18:54;98689.47;;;23.94;59.65
19526;BME280;9907;42.676;26.348;2023-05-24T07:21:19;98682.78;;;23.79;60.89
19526;BME280;9907;42.676;26.348;2023-05-24T07:23:45;98681.41;;;23.99;61.62
19526;BME280;9907;42.676;26.348;2023-05-24T07:26:10;98677.97;;;24.22;61.10
19526;BME280;9907;42.676;26.348;2023-05-24T07:28:36;98674.88;;;24.18;59.39
19526;BME280;9907;42.676;26.348;2023-05-24T07:31:04;98682.50;;;24.40;58.43
19526;BME280;9907;42.676;26.348;2023-05-24T07:33:32;98678.81;;;24.22;60.06
19526;BME280;9907;42.676;26.348;2023-05-24T07:35:57;98689.97;;;24.03;58.47
19526;BME280;9907;42.676;26.348;2023-05-24T07:38:22;98686.09;;;24.10;60.31
19526;BME280;9907;42.676;26.348;2023-05-24T07:40:48;98683.22;;;24.23;58.60
19526;BME280;9907;42.676;26.348;2023-05-24T07:43:14;98687.31;;;24.14;59.02
19526;BME280;9907;42.676;26.348;2023-05-24T07:45:39;98689.25;;;24.26;57.20
19526;BME280;9907;42.676;26.348;2023-05-24T07:48:05;98687.75;;;24.41;58.16
19526;BME280;9907;42.676;26.348;2023-05-24T07:50:30;98684.16;;;24.29;59.06
19526;BME280;9907;42.676;26.348;2023-05-24T07:52:56;98690.50;;;24.53;58.15
19526;BME280;9907;42.676;26.348;2023-05-24T07:55:21;98689.88;;;24.28;59.72
19526;BME280;9907;42.676;26.348;2023-05-24T08:00:13;98683.59;;;24.39;57.81
19526;BME280;9907;42.676;26.348;2023-05-24T08:02:42;98679.72;;;24.81;58.47
19526;BME280;9907;42.676;26.348;2023-05-24T08:05:10;98678.88;;;24.81;58.37
19526;BME280;9907;42.676;26.348;2023-05-24T08:07:39;98679.97;;;24.91;57.86
19526;BME280;9907;42.676;26.348;2023-05-24T08:10:08;98672.00;;;24.78;58.71
19526;BME280;9907;42.676;26.348;2023-05-24T08:12:33;98670.00;;;24.85;59.52
19526;BME280;9907;42.676;26.348;2023-05-24T08:14:59;98681.16;;;24.95;59.63
19526;BME280;9907;42.676;26.348;2023-05-24T08:17:25;98676.41;;;25.02;58.26
19526;BME280;9907;42.676;26.348;2023-05-24T08:19:50;98673.66;;;24.79;59.63
19526;BME280;9907;42.676;26.348;2023-05-24T08:22:16;98678.06;;;24.92;57.85
19526;BME280;9907;42.676;26.348;2023-05-24T08:24:41;98679.97;;;24.91;58.12
19526;BME280;9907;42.676;26.348;2023-05-24T08:27:10;98679.13;;;25.14;58.42
19526;BME280;9907;42.676;26.348;2023-05-24T08:29:36;98670.72;;;25.15;57.78
19526;BME280;9907;42.676;26.348;2023-05-24T08:32:02;98678.06;;;25.27;57.56
19526;BME280;9907;42.676;26.348;2023-05-24T08:34:28;98672.72;;;25.20;55.81
19526;BME280;9907;42.676;26.348;2023-05-24T08:36:54;98675.56;;;25.02;55.80
19526;BME280;9907;42.676;26.348;2023-05-24T08:39:19;98675.22;;;24.75;58.08
19526;BME280;9907;42.676;26.348;2023-05-24T08:41:45;98677.06;;;24.40;59.63
19526;BME280;9907;42.676;26.348;2023-05-24T08:44:11;98679.00;;;23.91;60.35
19526;BME280;9907;42.676;26.348;2023-05-24T08:46:37;98676.91;;;23.45;62.25
19526;BME280;9907;42.676;26.348;2023-05-24T08:49:03;98684.84;;;23.47;62.59
19526;BME280;9907;42.676;26.348;2023-05-24T08:51:29;98680.31;;;23.89;63.10
19526;BME280;9907;42.676;26.348;2023-05-24T08:53:57;98694.47;;;23.97;63.26
19526;BME280;9907;42.676;26.348;2023-05-24T08:56:24;98685.59;;;23.72;64.65
19526;BME280;9907;42.676;26.348;2023-05-24T08:58:51;98689.75;;;23.38;66.14
19526;BME280;9907;42.676;26.348;2023-05-24T09:01:18;98688.47;;;23.59;65.78
19526;BME280;9907;42.676;26.348;2023-05-24T09:03:47;98685.59;;;23.72;63.67
19526;BME280;9907;42.676;26.348;2023-05-24T09:06:17;98691.06;;;24.02;62.80
19526;BME280;9907;42.676;26.348;2023-05-24T09:08:43;98691.88;;;24.02;63.67
19526;BME280;9907;42.676;26.348;2023-05-24T09:11:09;98696.34;;;23.67;64.06
19526;BME280;9907;42.676;26.348;2023-05-24T09:13:35;98684.22;;;23.63;65.09
19526;BME280;9907;42.676;26.348;2023-05-24T09:16:01;98691.16;;;23.77;63.86
19526;BME280;9907;42.676;26.348;2023-05-24T09:18:27;98694.91;;;23.64;63.99
19526;BME280;9907;42.676;26.348;2023-05-24T09:20:53;98693.16;;;23.34;65.48
19526;BME280;9907;42.676;26.348;2023-05-24T09:23:21;98692.13;;;23.53;66.79
19526;BME280;9907;42.676;26.348;2023-05-24T09:25:48;98690.81;;;23.19;69.12
19526;BME280;9907;42.676;26.348;2023-05-24T09:28:16;98689.56;;;22.78;70.24
19526;BME280;9907;42.676;26.348;2023-05-24T09:30:43;98691.53;;;22.65;72.23
19526;BME280;9907;42.676;26.348;2023-05-24T09:33:09;98683.41;;;22.58;71.37
19526;BME280;9907;42.676;26.348;2023-05-24T09:35:36;98677.31;;;22.38;76.17
19526;BME280;9907;42.676;26.348;2023-05-24T09:38:02;98673.28;;;22.72;77.66
19526;BME280;9907;42.676;26.348;2023-05-24T09:40:28;98675.28;;;23.01;76.84
19526;BME280;9907;42.676;26.348;2023-05-24T09:43:02;98661.50;;;23.33;84.43
19526;BME280;9907;42.676;26.348;2023-05-24T09:45:27;98663.66;;;23.49;81.89
19526;BME280;9907;42.676;26.348;2023-05-24T09:47:53;98672.28;;;23.64;78.24
19526;BME280;9907;42.676;26.348;2023-05-24T09:50:18;98671.41;;;23.82;77.83
19526;BME280;9907;42.676;26.348;2023-05-24T09:52:44;98676.34;;;23.73;69.82
19526;BME280;9907;42.676;26.348;2023-05-24T09:55:16;98678.75;;;23.81;68.83
19526;BME280;9907;42.676;26.348;2023-05-24T09:57:43;98671.84;;;23.49;73.02
19526;BME280;9907;42.676;26.348;2023-05-24T10:00:10;98669.09;;;23.49;73.37
19526;BME280;9907;42.676;26.348;2023-05-24T10:02:39;98665.00;;;23.21;76.54
19526;BME280;9907;42.676;26.348;2023-05-24T10:05:04;98657.19;;;23.61;78.98
19526;BME280;9907;42.676;26.348;2023-05-24T10:07:32;98663.22;;;23.82;76.78
19526;BME280;9907;42.676;26.348;2023-05-24T10:09:59;98663.16;;;24.00;74.99
19526;BME280;9907;42.676;26.348;2023-05-24T10:12:25;98658.22;;;24.08;70.97
19526;BME280;9907;42.676;26.348;2023-05-24T10:14:52;98662.56;;;23.98;69.43
19526;BME280;9907;42.676;26.348;2023-05-24T10:17:21;98649.47;;;23.58;66.73
19526;BME280;9907;42.676;26.348;2023-05-24T10:19:47;98645.53;;;23.54;68.16
19526;BME280;9907;42.676;26.348;2023-05-24T10:22:13;98642.22;;;23.52;68.57
19526;BME280;9907;42.676;26.348;2023-05-24T10:24:45;98645.28;;;23.74;68.14
19526;BME280;9907;42.676;26.348;2023-05-24T10:27:21;98641.41;;;23.82;64.57
19526;BME280;9907;42.676;26.348;2023-05-24T10:32:55;98637.63;;;23.83;65.29
19526;BME280;9907;42.676;26.348;2023-05-24T10:35:22;98644.66;;;23.90;60.32
19526;BME280;9907;42.676;26.348;2023-05-24T10:37:48;98634.81;;;24.01;59.41
19526;BME280;9907;42.676;26.348;2023-05-24T10:40:19;98639.97;;;23.79;58.84
19526;BME280;9907;42.676;26.348;2023-05-24T10:42:45;98637.97;;;23.86;58.16
19526;BME280;9907;42.676;26.348;2023-05-24T10:47:51;98622.34;;;23.93;54.25
19526;BME280;9907;42.676;26.348;2023-05-24T10:50:20;98632.22;;;23.94;51.14
19526;BME280;9907;42.676;26.348;2023-05-24T10:52:47;98629.38;;;24.01;51.17
19526;BME280;9907;42.676;26.348;2023-05-24T10:55:14;98629.00;;;23.97;50.65
19526;BME280;9907;42.676;26.348;2023-05-24T10:57:41;98632.31;;;23.99;51.02
19526;BME280;9907;42.676;26.348;2023-05-24T11:03:01;98622.84;;;24.02;50.16
19526;BME280;9907;42.676;26.348;2023-05-24T11:08:12;98622.13;;;24.06;50.19
19526;BME280;9907;42.676;26.348;2023-05-24T11:10:37;98627.38;;;24.08;52.37
19526;BME280;9907;42.676;26.348;2023-05-24T11:13:06;98626.69;;;24.12;51.82
19526;BME280;9907;42.676;26.348;2023-05-24T11:15:33;98621.50;;;24.22;53.91
19526;BME280;9907;42.676;26.348;2023-05-24T11:20:36;98624.72;;;24.31;56.67
19526;BME280;9907;42.676;26.348;2023-05-24T11:23:02;98631.63;;;24.45;56.22
19526;BME280;9907;42.676;26.348;2023-05-24T11:25:34;98626.75;;;24.59;56.21
19526;BME280;9907;42.676;26.348;2023-05-24T11:28:07;98616.44;;;24.49;55.95
19526;BME280;9907;42.676;26.348;2023-05-24T11:30:45;98608.47;;;24.48;55.02
19526;BME280;9907;42.676;26.348;2023-05-24T11:35:43;98611.06;;;24.43;54.27
19526;BME280;9907;42.676;26.348;2023-05-24T11:38:14;98615.09;;;24.40;54.74
19526;BME280;9907;42.676;26.348;2023-05-24T11:40:44;98612.38;;;24.52;54.47
19526;BME280;9907;42.676;26.348;2023-05-24T11:43:18;98617.50;;;24.60;53.81
19526;BME280;9907;42.676;26.348;2023-05-24T11:45:45;98622.34;;;24.58;53.38
19526;BME280;9907;42.676;26.348;2023-05-24T11:48:12;98615.25;;;24.45;53.21
19526;BME280;9907;42.676;26.348;2023-05-24T11:50:46;98618.81;;;24.46;54.77
19526;BME280;9907;42.676;26.348;2023-05-24T11:53:18;98611.78;;;24.38;55.32
19526;BME280;9907;42.676;26.348;2023-05-24T11:55:44;98619.34;;;24.24;54.46
19526;BME280;9907;42.676;26.348;2023-05-24T11:58:12;98618.47;;;24.01;54.63
19526;BME280;9907;42.676;26.348;2023-05-24T12:00:38;98619.00;;;23.91;55.05
19526;BME280;9907;42.676;26.348;2023-05-24T12:03:04;98618.94;;;23.68;54.60
19526;BME280;9907;42.676;26.348;2023-05-24T12:05:36;98615.13;;;23.69;55.54
19526;BME280;9907;42.676;26.348;2023-05-24T12:08:08;98620.84;;;23.67;56.60
19526;BME280;9907;42.676;26.348;2023-05-24T12:10:35;98617.31;;;23.49;55.63
19526;BME280;9907;42.676;26.348;2023-05-24T12:13:05;98620.50;;;23.46;55.98
19526;BME280;9907;42.676;26.348;2023-05-24T12:15:31;98628.97;;;23.38;57.15
19526;BME280;9907;42.676;26.348;2023-05-24T12:18:00;98621.84;;;23.37;63.54
19526;BME280;9907;42.676;26.348;2023-05-24T12:20:29;98625.13;;;22.66;71.88
19526;BME280;9907;42.676;26.348;2023-05-24T12:22:55;98629.38;;;22.12;75.87
19526;BME280;9907;42.676;26.348;2023-05-24T12:25:21;98627.84;;;21.85;72.00
19526;BME280;9907;42.676;26.348;2023-05-24T12:27:54;98638.78;;;22.10;73.85
19526;BME280;9907;42.676;26.348;2023-05-24T12:30:23;98645.94;;;22.36;71.83
19526;BME280;9907;42.676;26.348;2023-05-24T12:32:50;98652.63;;;22.33;71.78
19526;BME280;9907;42.676;26.348;2023-05-24T12:35:24;98655.50;;;21.82;84.26
19526;BME280;9907;42.676;26.348;2023-05-24T12:37:57;98660.75;;;21.39;95.88
19526;BME280;9907;42.676;26.348;2023-05-24T12:40:26;98658.34;;;20.98;97.72
19526;BME280;9907;42.676;26.348;2023-05-24T12:42:53;98652.69;;;21.06;100.00
19526;BME280;9907;42.676;26.348;2023-05-24T12:45:21;98649.94;;;21.19;100.00
19526;BME280;9907;42.676;26.348;2023-05-24T12:47:56;98648.03;;;21.26;99.64
19526;BME280;9907;42.676;26.348;2023-05-24T12:50:23;98644.09;;;21.16;95.28
19526;BME280;9907;42.676;26.348;2023-05-24T12:52:49;98647.56;;;21.36;91.54
19526;BME280;9907;42.676;26.348;2023-05-24T12:55:27;98651.06;;;21.50;92.35
19526;BME280;9907;42.676;26.348;2023-05-24T12:57:53;98664.03;;;21.54;87.07
19526;BME280;9907;42.676;26.348;2023-05-24T13:00:21;98669.81;;;21.00;87.97
19526;BME280;9907;42.676;26.348;2023-05-24T13:02:47;98666.28;;;20.93;82.58
19526;BME280;9907;42.676;26.348;2023-05-24T13:05:13;98670.84;;;21.06;80.58
19526;BME280;9907;42.676;26.348;2023-05-24T13:07:41;98660.03;;;20.86;84.11
19526;BME280;9907;42.676;26.348;2023-05-24T13:10:07;98668.38;;;20.78;86.75
19526;BME280;9907;42.676;26.348;2023-05-24T13:12:33;98661.72;;;20.74;88.14
19526;BME280;9907;42.676;26.348;2023-05-24T13:14:58;98663.00;;;20.45;80.55
19526;BME280;9907;42.676;26.348;2023-05-24T13:17:26;98662.56;;;20.55;84.93
19526;BME280;9907;42.676;26.348;2023-05-24T13:19:52;98660.06;;;20.53;83.28
19526;BME280;9907;42.676;26.348;2023-05-24T13:22:19;98660.28;;;20.32;84.38
19526;BME280;9907;42.676;26.348;2023-05-24T13:24:44;98659.66;;;20.36;87.03
19526;BME280;9907;42.676;26.348;2023-05-24T13:27:12;98659.19;;;20.26;88.59
19526;BME280;9907;42.676;26.348;2023-05-24T13:29:38;98669.88;;;20.34;88.29
19526;BME280;9907;42.676;26.348;2023-05-24T13:32:07;98675.47;;;20.26;94.67